Costa Magica — IBQQ — position and weather

sailwx.info

Track history (hours):
 
Tides and Currents Weather Stations Pressure Air Temp Water Temp Dewpoint Dewpoint Depression Visibility Wind Speed Wind Dir Waves Ship Positions

Costa Magica

Last reported at 2020-Mar-31 15:54 UTC. Time now 2020-Apr-05 08:27 UTC.
Position N 26°33' W 078°51'.

Type: High speed craft. MMSI: 247113300.

Date/timePositionNaut miles runAvg speedWind from/ knotsBaromVisibWave heightAir tempDewpointWater temp
2020-Mar-31 15:54N 26°33' W 078°51'32 3.8
2020-Mar-31 07:30N 26°10' W 079°17'1111.1
2020-Mar-31 06:30N 26°05' W 079°28'13 8.7
2020-Mar-31 05:00N 26°18' W 079°31'4 8.9
2020-Mar-31 04:30N 26°22' W 079°31'9 8.7
2020-Mar-31 03:29N 26°31' W 079°31'9 2.3
2020-Mar-30 23:30N 26°36' W 079°39'2914.5
2020-Mar-30 21:30N 26°07' W 079°39'714.5
2020-Mar-30 21:00N 25°60' W 079°40'30 8.5
2020-Mar-30 17:30N 25°32' W 079°53'8 8.4
2020-Mar-30 16:30N 25°41' W 079°54'12 5.9
2020-Mar-30 14:28N 25°48' W 080°04'0 1.9
2020-Mar-30 14:25N 25°48' W 080°04'438.4
2020-Mar-30 14:19N 25°46' W 080°09'412.7
2020-Mar-30 13:58N 25°48' W 080°04'4153.2
2020-Mar-30 13:57N 25°46' W 080°08'4 9.4
2020-Mar-30 13:32N 25°48' W 080°04'0 0.1
2020-Mar-30 11:58N 25°48' W 080°04'0 0.2
2020-Mar-30 11:48N 25°48' W 080°04'013.1
2020-Mar-30 11:48N 25°48' W 080°05'6140.8
2020-Mar-30 11:45N 25°47' W 080°11'0 0.1
2020-Mar-30 11:38N 25°47' W 080°11'6 5.0
2020-Mar-30 10:28N 25°48' W 080°04'137.3
2020-Mar-30 10:27N 25°48' W 080°05'121.7
2020-Mar-30 10:26N 25°48' W 080°04'0 0.5
2020-Mar-30 10:19N 25°48' W 080°04'0 0.1
2020-Mar-30 08:28N 25°48' W 080°04'0 0.0
2020-Mar-30 07:58N 25°48' W 080°04'0 0.0
2020-Mar-30 05:58N 25°48' W 080°04'0 0.0
2020-Mar-30 05:28N 25°48' W 080°04'0 0.0
2020-Mar-30 04:19N 25°48' W 080°04'0 0.0
2020-Mar-30 01:52N 25°48' W 080°04'0 0.0
2020-Mar-30 01:22N 25°48' W 080°04'0 0.0
2020-Mar-29 22:25N 25°48' W 080°04'0 0.0
2020-Mar-29 21:28N 25°48' W 080°04'0 0.0
2020-Mar-29 20:28N 25°48' W 080°04'0 0.0
2020-Mar-29 19:28N 25°48' W 080°04'0 0.0
2020-Mar-29 18:55N 25°48' W 080°04'0 0.0
2020-Mar-29 17:58N 25°48' W 080°04'0 0.0
2020-Mar-29 17:28N 25°48' W 080°04'0 0.0
2020-Mar-29 16:28N 25°48' W 080°04'0 0.0
2020-Mar-29 14:22N 25°48' W 080°04'0 0.0
2020-Mar-29 13:22N 25°48' W 080°04'0 0.0
2020-Mar-29 12:52N 25°48' W 080°04'0 0.0
2020-Mar-29 12:22N 25°48' W 080°04'0 0.0
2020-Mar-29 11:25N 25°48' W 080°04'0 0.0
2020-Mar-29 08:58N 25°48' W 080°04'0 0.0
2020-Mar-29 03:28N 25°48' W 080°04'0 0.0
2020-Mar-29 02:28N 25°48' W 080°04'0 0.0
2020-Mar-28 23:52N 25°48' W 080°04'0 0.0
2020-Mar-28 23:22N 25°48' W 080°04'0 0.0
2020-Mar-28 20:55N 25°48' W 080°04'0 0.0
2020-Mar-28 19:25N 25°48' W 080°04'0 0.0
2020-Mar-28 15:28N 25°48' W 080°04'0 0.0
2020-Mar-28 12:28N 25°48' W 080°04'0 0.0
2020-Mar-28 11:58N 25°48' W 080°04'0 0.0
2020-Mar-28 11:19N 25°48' W 080°04'0 0.0
2020-Mar-28 08:22N 25°48' W 080°04'0 0.0
2020-Mar-28 06:25N 25°48' W 080°04'0 0.0
2020-Mar-28 05:55N 25°48' W 080°04'0 0.0
2020-Mar-28 02:58N 25°48' W 080°04'0 0.0
2020-Mar-28 02:28N 25°48' W 080°04'0 0.0
2020-Mar-28 01:58N 25°48' W 080°04'0 0.0
2020-Mar-28 00:58N 25°48' W 080°04'0 0.0
2020-Mar-27 22:28N 25°48' W 080°04'0 0.0
2020-Mar-27 21:28N 25°48' W 080°04'0 0.0
2020-Mar-27 16:58N 25°48' W 080°04'0 0.0
2020-Mar-27 16:28N 25°48' W 080°04'0 0.0
2020-Mar-27 15:58N 25°48' W 080°04'0 0.0
2020-Mar-27 14:58N 25°48' W 080°04'0 0.0
2020-Mar-27 13:28N 25°48' W 080°04'0 0.0
2020-Mar-27 12:28N 25°48' W 080°04'0 0.0
2020-Mar-27 12:00N 25°48' W 080°04'0 0.0
2020-Mar-27 10:30N 25°48' W 080°04'0 0.1
2020-Mar-27 10:00N 25°48' W 080°04'0 0.0
2020-Mar-27 08:00N 25°48' W 080°04'0 0.0
2020-Mar-27 06:00N 25°48' W 080°04'0 0.0
2020-Mar-27 03:30N 25°48' W 080°04'0 0.0
2020-Mar-26 21:30N 25°48' W 080°04'0 0.0
2020-Mar-26 21:00N 25°48' W 080°04'0 0.0
2020-Mar-26 18:00N 25°48' W 080°04'0 0.8
2020-Mar-26 17:30N 25°48' W 080°04'2 0.9
2020-Mar-26 15:00N 25°46' W 080°03'3 2.3
2020-Mar-26 13:30N 25°47' W 079°60'12 4.8
2020-Mar-26 11:00N 25°36' W 079°53'2020.1
2020-Mar-26 10:00N 25°17' W 079°49'1120.7
2020-Mar-26 09:29N 25°06' W 079°48'9318.6
2020-Mar-26 04:30N 23°38' W 079°16'2020.2
2020-Mar-26 03:31N 23°19' W 079°09'  
Track history (hours):
 
Tides and Currents Weather Stations Pressure Air Temp Water Temp Dewpoint Dewpoint Depression Visibility Wind Speed Wind Dir Waves Ship Positions

Costa Magica

Last reported at 2020-Mar-31 15:54 UTC. Time now 2020-Apr-05 08:27 UTC.
Position N 26°33' W 078°51'.

Type: High speed craft. MMSI: 247113300.

Date/timePositionNaut miles runAvg speedWind from/ knotsBaromVisibWave heightAir tempDewpointWater temp
2020-Mar-31 15:54N 26°33' W 078°51'32 3.8
2020-Mar-31 07:30N 26°10' W 079°17'1111.1
2020-Mar-31 06:30N 26°05' W 079°28'13 8.7
2020-Mar-31 05:00N 26°18' W 079°31'4 8.9
2020-Mar-31 04:30N 26°22' W 079°31'9 8.7
2020-Mar-31 03:29N 26°31' W 079°31'9 2.3
2020-Mar-30 23:30N 26°36' W 079°39'2914.5
2020-Mar-30 21:30N 26°07' W 079°39'714.5
2020-Mar-30 21:00N 25°60' W 079°40'30 8.5
2020-Mar-30 17:30N 25°32' W 079°53'8 8.4
2020-Mar-30 16:30N 25°41' W 079°54'12 5.9
2020-Mar-30 14:28N 25°48' W 080°04'0 1.9
2020-Mar-30 14:25N 25°48' W 080°04'438.4
2020-Mar-30 14:19N 25°46' W 080°09'412.7
2020-Mar-30 13:58N 25°48' W 080°04'4153.2
2020-Mar-30 13:57N 25°46' W 080°08'4 9.4
2020-Mar-30 13:32N 25°48' W 080°04'0 0.1
2020-Mar-30 11:58N 25°48' W 080°04'0 0.2
2020-Mar-30 11:48N 25°48' W 080°04'013.1
2020-Mar-30 11:48N 25°48' W 080°05'6140.8
2020-Mar-30 11:45N 25°47' W 080°11'0 0.1
2020-Mar-30 11:38N 25°47' W 080°11'6 5.0
2020-Mar-30 10:28N 25°48' W 080°04'137.3
2020-Mar-30 10:27N 25°48' W 080°05'121.7
2020-Mar-30 10:26N 25°48' W 080°04'0 0.5
2020-Mar-30 10:19N 25°48' W 080°04'0 0.1
2020-Mar-30 08:28N 25°48' W 080°04'0 0.0
2020-Mar-30 07:58N 25°48' W 080°04'0 0.0
2020-Mar-30 05:58N 25°48' W 080°04'0 0.0
2020-Mar-30 05:28N 25°48' W 080°04'0 0.0
2020-Mar-30 04:19N 25°48' W 080°04'0 0.0
2020-Mar-30 01:52N 25°48' W 080°04'0 0.0
2020-Mar-30 01:22N 25°48' W 080°04'0 0.0
2020-Mar-29 22:25N 25°48' W 080°04'0 0.0
2020-Mar-29 21:28N 25°48' W 080°04'0 0.0
2020-Mar-29 20:28N 25°48' W 080°04'0 0.0
2020-Mar-29 19:28N 25°48' W 080°04'0 0.0
2020-Mar-29 18:55N 25°48' W 080°04'0 0.0
2020-Mar-29 17:58N 25°48' W 080°04'0 0.0
2020-Mar-29 17:28N 25°48' W 080°04'0 0.0
2020-Mar-29 16:28N 25°48' W 080°04'0 0.0
2020-Mar-29 14:22N 25°48' W 080°04'0 0.0
2020-Mar-29 13:22N 25°48' W 080°04'0 0.0
2020-Mar-29 12:52N 25°48' W 080°04'0 0.0
2020-Mar-29 12:22N 25°48' W 080°04'0 0.0
2020-Mar-29 11:25N 25°48' W 080°04'0 0.0
2020-Mar-29 08:58N 25°48' W 080°04'0 0.0
2020-Mar-29 03:28N 25°48' W 080°04'0 0.0
2020-Mar-29 02:28N 25°48' W 080°04'0 0.0
2020-Mar-28 23:52N 25°48' W 080°04'0 0.0
2020-Mar-28 23:22N 25°48' W 080°04'0 0.0
2020-Mar-28 20:55N 25°48' W 080°04'0 0.0
2020-Mar-28 19:25N 25°48' W 080°04'0 0.0
2020-Mar-28 15:28N 25°48' W 080°04'0 0.0
2020-Mar-28 12:28N 25°48' W 080°04'0 0.0
2020-Mar-28 11:58N 25°48' W 080°04'0 0.0
2020-Mar-28 11:19N 25°48' W 080°04'0 0.0
2020-Mar-28 08:22N 25°48' W 080°04'0 0.0
2020-Mar-28 06:25N 25°48' W 080°04'0 0.0
2020-Mar-28 05:55N 25°48' W 080°04'0 0.0
2020-Mar-28 02:58N 25°48' W 080°04'0 0.0
2020-Mar-28 02:28N 25°48' W 080°04'0 0.0
2020-Mar-28 01:58N 25°48' W 080°04'0 0.0
2020-Mar-28 00:58N 25°48' W 080°04'0 0.0
2020-Mar-27 22:28N 25°48' W 080°04'0 0.0
2020-Mar-27 21:28N 25°48' W 080°04'0 0.0
2020-Mar-27 16:58N 25°48' W 080°04'0 0.0
2020-Mar-27 16:28N 25°48' W 080°04'0 0.0
2020-Mar-27 15:58N 25°48' W 080°04'0 0.0
2020-Mar-27 14:58N 25°48' W 080°04'0 0.0
2020-Mar-27 13:28N 25°48' W 080°04'0 0.0
2020-Mar-27 12:28N 25°48' W 080°04'0 0.0
2020-Mar-27 12:00N 25°48' W 080°04'0 0.0
2020-Mar-27 10:30N 25°48' W 080°04'0 0.1
2020-Mar-27 10:00N 25°48' W 080°04'0 0.0
2020-Mar-27 08:00N 25°48' W 080°04'0 0.0
2020-Mar-27 06:00N 25°48' W 080°04'0 0.0
2020-Mar-27 03:30N 25°48' W 080°04'0 0.0
2020-Mar-26 21:30N 25°48' W 080°04'0 0.0
2020-Mar-26 21:00N 25°48' W 080°04'0 0.0
2020-Mar-26 18:00N 25°48' W 080°04'0 0.8
2020-Mar-26 17:30N 25°48' W 080°04'2 0.9
2020-Mar-26 15:00N 25°46' W 080°03'3 2.3
2020-Mar-26 13:30N 25°47' W 079°60'12 4.8
2020-Mar-26 11:00N 25°36' W 079°53'2020.1
2020-Mar-26 10:00N 25°17' W 079°49'1120.7
2020-Mar-26 09:29N 25°06' W 079°48'9318.6
2020-Mar-26 04:30N 23°38' W 079°16'2020.2
2020-Mar-26 03:31N 23°19' W 079°09'  

Dump ship's entire track history